ADDS METAR Data INFO
IDs: Format: Raw Decoded Include TAF

Data at: 1313 UTC 11 Dec 2017

KFKA 111255Z AUTO 17009KT 10SM SCT036 OVC043 M03/M05 A2975 RMK AO2 T10271052
KFKA 111235Z AUTO 17009KT 10SM SCT036 OVC043 M03/M05 A2975 RMK AO2 T10271053
KFKA 111215Z AUTO 18010KT 10SM OVC043 M02/M05 A2976 RMK AO2 T10251052
KFKA 111155Z AUTO 17007KT 10SM OVC041 M02/M05 A2977 RMK AO2 T10251052 11025 21049
KFKA 111135Z AUTO 17010KT 10SM OVC041 M03/M05 A2978 RMK AO2 T10271053
KFKA 111115Z AUTO 18008KT 7SM BKN041 M03/M05 A2979 RMK AO2 T10311055
KFKA 111055Z AUTO 17009KT 7SM SCT048 M03/M06 A2980 RMK AO2 T10351056
KFKA 111035Z AUTO 17010KT 7SM BKN050 BKN120 M03/M06 A2982 RMK AO2 T10351056
KFKA 111015Z AUTO 17008KT 10SM OVC050 M03/M05 A2984 RMK AO2 T10331055
KFKA 110955Z AUTO 18010KT 10SM OVC050 M03/M05 A2986 RMK AO2 T10311053
KFKA 110935Z AUTO 19008KT 10SM OVC050 M03/M05 A2987 RMK AO2 T10321055
KFKA 110915Z AUTO 19010KT 7SM OVC060 M03/M05 A2989 RMK AO2 T10341055
KFKA 110855Z AUTO 17008KT 10SM OVC060 M03/M05 A2989 RMK AO2 T10351055
KFKA 110835Z AUTO 16007KT 7SM SCT024 SCT032 OVC060 M04/M06 A2989 RMK AO2 T10361056
KFKA 110815Z AUTO 17009KT 10SM SCT034 BKN045 OVC055 M04/M06 A2990 RMK AO2 T10361056
KFKA 110755Z AUTO 18007KT 7SM SCT022 BKN049 OVC055 M04/M06 A2991 RMK AO2 T10381057
KFKA 110735Z AUTO 17008KT 7SM SCT021 BKN029 OVC049 M04/M06 A2992 RMK AO2 T10381059
KFKA 110715Z AUTO 19007KT 10SM SCT021 BKN033 OVC080 M04/M06 A2994 RMK AO2 T10401061
KFKA 110655Z AUTO 19004KT 10SM SCT050 SCT075 BKN080 M04/M06 A2994 RMK AO2 T10441064
KFKA 110635Z AUTO 16005KT 10SM SCT075 BKN085 M05/M06 A2994 RMK AO2 T10461065
KFKA 110615Z AUTO 18005KT 10SM SCT065 SCT075 M05/M06 A2996 RMK AO2 T10461065
KFKA 110555Z AUTO 19005KT 10SM OVC075 M05/M07 A2999 RMK AO2 T10501066 11030 21055 410221073
KFKA 110535Z AUTO 15003KT 10SM OVC085 M05/M06 A2998 RMK AO2 T10471065
KFKA 110515Z AUTO 00000KT 10SM OVC085 M05/M07 A2999 RMK AO2 T10501069
KFKA 110455Z AUTO 00000KT 10SM BKN085 M05/M07 A2999 RMK AO2 T10541071
KFKA 110435Z AUTO 19003KT 10SM CLR M05/M07 A3000 RMK AO2 T10511071
KFKA 110415Z AUTO 00000KT 10SM CLR M05/M07 A3001 RMK AO2 T10501071
KFKA 110355Z AUTO 19003KT 7SM CLR M05/M07 A3001 RMK AO2 T10501070
KFKA 110335Z AUTO 00000KT 10SM SCT014 M04/M07 A3002 RMK AO2 T10451070
KFKA 110315Z AUTO 00000KT 10SM OVC014 M04/M07 A3002 RMK AO2 T10401068
KFKA 110255Z AUTO 00000KT 10SM OVC016 M04/M07 A3003 RMK AO2 T10371067
KFKA 110235Z AUTO 32004KT 10SM OVC016 M04/M07 A3004 RMK AO2 T10361066
KFKA 110215Z AUTO 00000KT 10SM OVC016 M04/M07 A3004 RMK AO2 T10361066
KFKA 110155Z AUTO 30003KT 10SM OVC016 M03/M07 A3005 RMK AO2 T10351066
KFKA 110135Z AUTO 31004KT 10SM OVC016 M03/M06 A3005 RMK AO2 T10351065
KFKA 110115Z AUTO 30006KT 10SM OVC016 M03/M07 A3004 RMK AO2 T10351066
KFKA 110055Z AUTO 33008KT 10SM OVC016 M03/M06 A3005 RMK AO2 T10321065
KFKA 110035Z AUTO 32006KT 10SM OVC016 M03/M06 A3005 RMK AO2 T10301065
KFKA 110015Z AUTO 33006KT 10SM OVC018 M03/M06 A3005 RMK AO2 T10301064
KFKA 102355Z AUTO 32005KT 10SM OVC018 M03/M06 A3005 RMK AO2 T10301062 11022 21030
KFKA 102335Z AUTO 31006KT 10SM OVC018 M03/M06 A3004 RMK AO2 T10291061
KFKA 102315Z AUTO 32005KT 10SM OVC018 M03/M06 A3004 RMK AO2 T10281062
KFKA 102255Z AUTO 33007KT 10SM OVC018 M03/M06 A3004 RMK AO2 T10281062
KFKA 102235Z AUTO 32007KT 10SM OVC018 M03/M06 A3002 RMK AO2 T10271062
KFKA 102215Z AUTO 32003KT 10SM OVC018 M03/M06 A3001 RMK AO2 LTG DSNT E T10261063
KFKA 102155Z AUTO 33007KT 10SM OVC018 M02/M06 A3001 RMK AO2 T10251063
KFKA 102135Z AUTO 33008KT 10SM OVC018 M02/M06 A3001 RMK AO2 T10231063
KFKA 102115Z AUTO 32005KT 10SM OVC018 M02/M06 A2999 RMK AO2 T10251063
KFKA 102055Z AUTO 34009KT 10SM OVC018 M02/M06 A3000 RMK AO2 T10251065
KFKA 102035Z AUTO 34009KT 10SM OVC018 M03/M06 A3000 RMK AO2 T10261065
KFKA 102015Z AUTO 34009KT 10SM OVC018 M03/M06 A3000 RMK AO2 T10261065
KFKA 101955Z AUTO 31011KT 7SM OVC018 M03/M07 A2999 RMK AO2 T10271066
KFKA 101935Z AUTO 35008KT 7SM OVC016 M03/M07 A2998 RMK AO2 T10281067
KFKA 101915Z AUTO 34010KT 7SM OVC016 M03/M06 A2998 RMK AO2 T10271065
KFKA 101855Z AUTO 33011KT 10SM OVC016 M03/M06 A2997 RMK AO2 T10261064
KFKA 101835Z AUTO 32008KT 7SM OVC018 M03/M06 A2996 RMK AO2 T10271063
KFKA 101815Z AUTO 35010KT 10SM OVC018 M03/M06 A2996 RMK AO2 T10301065
KFKA 101755Z AUTO 32010KT 10SM OVC020 M03/M06 A2997 RMK AO2 T10301062 11030 21071
KFKA 101735Z AUTO 34010KT 10SM SCT013 OVC020 M03/M06 A2996 RMK AO2 T10311064
KFKA 101715Z AUTO 32009KT 10SM SCT013 OVC020 M03/M06 A2996 RMK AO2 T10351065
KFKA 101655Z AUTO 33010KT 10SM OVC020 M04/M07 A2995 RMK AO2 T10361066
KFKA 101635Z AUTO 34008KT 10SM OVC020 M04/M07 A2994 RMK AO2 T10381067
KFKA 101615Z AUTO 35010KT 10SM SCT011 OVC020 M04/M07 A2994 RMK AO2 T10411068
KFKA 101555Z AUTO 35008KT 10SM SCT011 OVC020 M04/M07 A2993 RMK AO2 T10431069
KFKA 101535Z AUTO 36008KT 10SM SCT011 OVC022 M04/M07 A2992 RMK AO2 T10451070
KFKA 101515Z AUTO 36007G14KT 10SM SCT011 SCT024 M04/M07 A2991 RMK AO2 T10451068
KFKA 101455Z AUTO 34010KT 10SM CLR M05/M07 A2991 RMK AO2 T10471068
KFKA 101435Z AUTO 35007KT 10SM CLR M05/M07 A2989 RMK AO2 T10521070
KFKA 101415Z AUTO 33007KT 10SM SCT021 M06/M07 A2988 RMK AO2 T10561072
KFKA 101355Z AUTO 32006KT 10SM CLR M06/M07 A2987 RMK AO2 T10561073
KFKA 101335Z AUTO 33008KT 10SM CLR M06/M07 A2986 RMK AO2 T10561073
KFKA 101315Z AUTO 33011KT 10SM CLR M06/M07 A2986 RMK AO2 T10561074
KFKA 101255Z AUTO 32009KT 10SM CLR M06/M08 A2985 RMK AO2 T10571076
KFKA 101235Z AUTO 31010KT 10SM CLR M06/M08 A2984 RMK AO2 T10651082
KFKA 101215Z AUTO 30009KT 10SM CLR M07/M08 A2982 RMK AO2 T10661085
KFKA 101155Z AUTO 28009KT 10SM CLR M07/M09 A2981 RMK AO2 T10721091 11059 21073
KFKA 101135Z AUTO 27008KT 10SM CLR M07/M09 A2980 RMK AO2 T10701091
KFKA 101115Z AUTO 27009KT 10SM CLR M07/M09 A2980 RMK AO2 T10661090
KFKA 101055Z AUTO 25010KT 10SM CLR M07/M09 A2980 RMK AO2 T10661091
KFKA 101035Z AUTO 25009KT 10SM CLR M07/M09 A2980 RMK AO2 T10661092
KFKA 101015Z AUTO 24007KT 10SM CLR M07/M09 A2980 RMK AO2 T10681095
KFKA 100955Z AUTO 23009KT 10SM CLR M07/M09 A2981 RMK AO2 T10671095
KFKA 100935Z AUTO 22010KT 10SM CLR M07/M10 A2980 RMK AO2 T10681096
KFKA 100915Z AUTO 22010G15KT 10SM CLR M07/M10 A2981 RMK AO2 T10701098
KFKA 100855Z AUTO 22010KT 10SM CLR M07/M10 A2982 RMK AO2 T10671098
KFKA 100836Z AUTO 22010KT 10SM CLR M07/M10 A2983 RMK AO2 T10671098
KFKA 100815Z AUTO 21013G17KT 10SM CLR M06/M10 A2982 RMK AO2 T10651098
KFKA 100755Z AUTO 22012G19KT 10SM CLR M06/M10 A2982 RMK AO2 T10631098
KFKA 100736Z AUTO 20013G20KT 10SM CLR M06/M10 A2982 RMK AO2 T10611097
KFKA 100715Z AUTO 20015G19KT 10SM BKN080 M06/M10 A2982 RMK AO2 T10601097
KFKA 100655Z AUTO 20015KT 10SM OVC080 M06/M09 A2984 RMK AO2 T10601095
KFKA 100636Z AUTO 19015KT 10SM OVC080 M06/M10 A2986 RMK AO2 T10601096
KFKA 100615Z AUTO 20010KT 10SM OVC090 M06/M10 A2989 RMK AO2 T10601096
KFKA 100555Z AUTO 20007KT 10SM OVC090 M06/M10 A2992 RMK AO2 T10611096 11061 21093 410201093
KFKA 100535Z AUTO 20007KT 10SM SCT060 SCT075 OVC090 M06/M10 A2992 RMK AO2 T10621098
KFKA 100515Z AUTO 21006KT 10SM SCT060 BKN070 BKN090 M06/M10 A2993 RMK AO2 T10651100
KFKA 100455Z AUTO 20007KT 10SM SCT060 SCT065 SCT090 M07/M10 A2994 RMK AO2 T10671101
KFKA 100435Z AUTO 21007KT 10SM SCT060 SCT070 M07/M10 A2995 RMK AO2 T10701103
KFKA 100415Z AUTO 21006KT 10SM CLR M07/M10 A2996 RMK AO2 T10701102
KFKA 100355Z AUTO 22005KT 10SM SCT049 SCT060 SCT070 M07/M10 A2998 RMK AO2 T10701103
KFKA 100335Z AUTO 23005KT 10SM SCT042 BKN048 BKN060 M07/M10 A2999 RMK AO2 T10711105
KFKA 100315Z AUTO 24006KT 10SM BKN044 M07/M11 A3000 RMK AO2 T10741106
KFKA 100255Z AUTO 24006KT 10SM SCT047 M08/M11 A3001 RMK AO2 T10771107
KFKA 100235Z AUTO 21005KT 10SM CLR M08/M11 A3001 RMK AO2 T10801110
KFKA 100215Z AUTO 21005KT 10SM CLR M08/M11 A3002 RMK AO2 T10851111
KFKA 100155Z AUTO 23005KT 10SM CLR M09/M12 A3003 RMK AO2 T10911116
KFKA 100135Z AUTO 24005KT 10SM CLR M09/M12 A3003 RMK AO2 T10931120
KFKA 100115Z AUTO 22003KT 10SM SCT018 M09/M12 A3004 RMK AO2 T10861117